sensor_id;sensor_type;location;lat;lon;timestamp;pressure;altitude;pressure_sealevel;temperature;humidity
20930;BME280;21895;47.072;15.132;2023-07-30T18:27:08;96525.00;;;22.53;83.91
20930;BME280;21895;47.072;15.132;2023-07-30T18:29:34;96531.00;;;22.30;83.60
20930;BME280;21895;47.072;15.132;2023-07-30T18:32:08;96533.00;;;22.22;83.44
20930;BME280;21895;47.072;15.132;2023-07-30T18:34:36;96545.00;;;22.24;84.17
20930;BME280;21895;47.072;15.132;2023-07-30T18:37:04;96535.00;;;22.29;82.95
20930;BME280;21895;47.072;15.132;2023-07-30T18:39:32;96520.00;;;22.24;82.26
20930;BME280;21895;47.072;15.132;2023-07-30T18:42:00;96528.00;;;22.28;83.80
20930;BME280;21895;47.072;15.132;2023-07-30T18:44:28;96531.00;;;22.24;84.94
20930;BME280;21895;47.072;15.132;2023-07-30T18:46:55;96532.00;;;22.24;85.19
20930;BME280;21895;47.072;15.132;2023-07-30T18:49:29;96533.00;;;22.23;84.45
20930;BME280;21895;47.072;15.132;2023-07-30T18:51:56;96536.00;;;22.24;82.73
20930;BME280;21895;47.072;15.132;2023-07-30T18:54:23;96548.00;;;22.19;82.24
20930;BME280;21895;47.072;15.132;2023-07-30T18:56:49;96562.00;;;21.93;83.78
20930;BME280;21895;47.072;15.132;2023-07-30T18:59:16;96574.00;;;22.02;82.77
20930;BME280;21895;47.072;15.132;2023-07-30T19:01:43;96576.00;;;21.90;83.42
20930;BME280;21895;47.072;15.132;2023-07-30T19:04:09;96575.00;;;21.86;84.14
20930;BME280;21895;47.072;15.132;2023-07-30T19:06:36;96578.00;;;21.84;84.18
20930;BME280;21895;47.072;15.132;2023-07-30T19:09:03;96573.00;;;21.87;83.51
20930;BME280;21895;47.072;15.132;2023-07-30T19:11:29;96582.00;;;21.92;82.67
20930;BME280;21895;47.072;15.132;2023-07-30T19:13:56;96583.00;;;21.95;83.30
20930;BME280;21895;47.072;15.132;2023-07-30T19:16:23;96581.00;;;22.19;82.07
20930;BME280;21895;47.072;15.132;2023-07-30T19:18:49;96597.00;;;21.88;84.39
20930;BME280;21895;47.072;15.132;2023-07-30T19:21:16;96591.00;;;21.62;85.28
20930;BME280;21895;47.072;15.132;2023-07-30T19:23:43;96597.00;;;21.51;84.61
20930;BME280;21895;47.072;15.132;2023-07-30T19:26:09;96603.00;;;21.42;84.33
20930;BME280;21895;47.072;15.132;2023-07-30T19:28:36;96607.00;;;21.48;83.14
20930;BME280;21895;47.072;15.132;2023-07-30T19:31:08;96607.00;;;21.22;82.91
20930;BME280;21895;47.072;15.132;2023-07-30T19:33:36;96615.00;;;21.15;83.23
20930;BME280;21895;47.072;15.132;2023-07-30T19:36:05;96625.00;;;21.28;81.88
20930;BME280;21895;47.072;15.132;2023-07-30T19:38:31;96619.00;;;21.27;82.08
20930;BME280;21895;47.072;15.132;2023-07-30T19:40:58;96625.00;;;21.25;82.20
20930;BME280;21895;47.072;15.132;2023-07-30T19:43:24;96625.00;;;21.18;81.75
20930;BME280;21895;47.072;15.132;2023-07-30T19:45:52;96624.00;;;21.12;81.46
20930;BME280;21895;47.072;15.132;2023-07-30T19:48:22;96629.00;;;21.12;81.37
20930;BME280;21895;47.072;15.132;2023-07-30T19:50:50;96626.00;;;21.08;80.63
20930;BME280;21895;47.072;15.132;2023-07-30T19:53:18;96628.00;;;21.18;80.39
20930;BME280;21895;47.072;15.132;2023-07-30T19:55:45;96633.00;;;21.11;80.61
20930;BME280;21895;47.072;15.132;2023-07-30T19:58:29;96621.00;;;20.98;80.45
20930;BME280;21895;47.072;15.132;2023-07-30T20:00:58;96634.00;;;20.73;81.46
20930;BME280;21895;47.072;15.132;2023-07-30T20:03:26;96630.00;;;20.71;81.90
20930;BME280;21895;47.072;15.132;2023-07-30T20:06:05;96632.00;;;20.72;83.01
20930;BME280;21895;47.072;15.132;2023-07-30T20:08:32;96632.00;;;20.64;84.95
20930;BME280;21895;47.072;15.132;2023-07-30T20:11:01;96637.00;;;20.70;83.80
20930;BME280;21895;47.072;15.132;2023-07-30T20:13:29;96644.00;;;20.59;84.70
20930;BME280;21895;47.072;15.132;2023-07-30T20:15:55;96643.00;;;20.55;84.34
20930;BME280;21895;47.072;15.132;2023-07-30T20:18:23;96649.00;;;20.59;82.12
20930;BME280;21895;47.072;15.132;2023-07-30T20:20:50;96641.00;;;20.54;82.11
20930;BME280;21895;47.072;15.132;2023-07-30T20:23:17;96653.00;;;20.55;81.24
20930;BME280;21895;47.072;15.132;2023-07-30T20:25:44;96643.00;;;20.54;81.31
20930;BME280;21895;47.072;15.132;2023-07-30T20:28:10;96644.00;;;20.37;82.31
20930;BME280;21895;47.072;15.132;2023-07-30T20:30:37;96646.00;;;20.64;80.47
20930;BME280;21895;47.072;15.132;2023-07-30T20:33:05;96641.00;;;20.37;81.34
20930;BME280;21895;47.072;15.132;2023-07-30T20:35:31;96643.00;;;20.45;80.19
20930;BME280;21895;47.072;15.132;2023-07-30T20:37:58;96647.00;;;20.17;81.14
20930;BME280;21895;47.072;15.132;2023-07-30T20:40:28;96644.00;;;20.06;81.94
20930;BME280;21895;47.072;15.132;2023-07-30T20:42:55;96655.00;;;19.96;83.08
20930;BME280;21895;47.072;15.132;2023-07-30T20:45:22;96659.00;;;20.14;82.83
20930;BME280;21895;47.072;15.132;2023-07-30T20:47:51;96658.00;;;20.03;83.00
20930;BME280;21895;47.072;15.132;2023-07-30T20:50:19;96646.00;;;19.97;83.22
20930;BME280;21895;47.072;15.132;2023-07-30T20:52:47;96635.00;;;19.80;84.65
20930;BME280;21895;47.072;15.132;2023-07-30T20:55:16;96640.00;;;19.69;85.99
20930;BME280;21895;47.072;15.132;2023-07-30T20:57:44;96648.00;;;19.54;87.16
20930;BME280;21895;47.072;15.132;2023-07-30T21:00:11;96652.00;;;19.50;87.47
20930;BME280;21895;47.072;15.132;2023-07-30T21:02:38;96661.00;;;19.59;87.04
20930;BME280;21895;47.072;15.132;2023-07-30T21:05:05;96661.00;;;19.47;87.11
20930;BME280;21895;47.072;15.132;2023-07-30T21:07:32;96657.00;;;19.46;85.64
20930;BME280;21895;47.072;15.132;2023-07-30T21:09:59;96655.00;;;19.53;83.04
20930;BME280;21895;47.072;15.132;2023-07-30T21:12:25;96652.00;;;19.43;82.10
20930;BME280;21895;47.072;15.132;2023-07-30T21:14:52;96652.00;;;19.50;81.31
20930;BME280;21895;47.072;15.132;2023-07-30T21:17:19;96655.00;;;19.31;82.44
20930;BME280;21895;47.072;15.132;2023-07-30T21:19:47;96660.00;;;19.21;83.22
20930;BME280;21895;47.072;15.132;2023-07-30T21:22:14;96660.00;;;19.22;82.89
20930;BME280;21895;47.072;15.132;2023-07-30T21:24:40;96658.00;;;19.16;83.36
20930;BME280;21895;47.072;15.132;2023-07-30T21:27:07;96659.00;;;19.09;83.53
20930;BME280;21895;47.072;15.132;2023-07-30T21:29:33;96654.00;;;18.99;84.47
20930;BME280;21895;47.072;15.132;2023-07-30T21:32:00;96660.00;;;19.00;84.41
20930;BME280;21895;47.072;15.132;2023-07-30T21:34:27;96661.00;;;18.94;84.51
20930;BME280;21895;47.072;15.132;2023-07-30T21:36:53;96664.00;;;18.94;84.86
20930;BME280;21895;47.072;15.132;2023-07-30T21:39:20;96662.00;;;18.96;85.04
20930;BME280;21895;47.072;15.132;2023-07-30T21:41:46;96658.00;;;18.97;84.84
20930;BME280;21895;47.072;15.132;2023-07-30T21:44:13;96661.00;;;18.88;85.21
20930;BME280;21895;47.072;15.132;2023-07-30T21:46:42;96665.00;;;18.89;84.54
20930;BME280;21895;47.072;15.132;2023-07-30T21:49:09;96664.00;;;18.82;83.11
20930;BME280;21895;47.072;15.132;2023-07-30T21:51:36;96664.00;;;18.61;83.52
20930;BME280;21895;47.072;15.132;2023-07-30T21:54:03;96674.00;;;18.45;84.18
20930;BME280;21895;47.072;15.132;2023-07-30T21:56:29;96680.00;;;18.46;83.05
20930;BME280;21895;47.072;15.132;2023-07-30T21:58:56;96677.00;;;18.37;82.71
20930;BME280;21895;47.072;15.132;2023-07-30T22:01:22;96679.00;;;18.18;83.56
20930;BME280;21895;47.072;15.132;2023-07-30T22:03:49;96667.00;;;18.05;83.96
20930;BME280;21895;47.072;15.132;2023-07-30T22:06:15;96678.00;;;18.00;84.06
20930;BME280;21895;47.072;15.132;2023-07-30T22:08:42;96686.00;;;18.05;83.64
20930;BME280;21895;47.072;15.132;2023-07-30T22:11:17;96681.00;;;18.06;83.34
20930;BME280;21895;47.072;15.132;2023-07-30T22:13:44;96687.00;;;18.11;82.89
20930;BME280;21895;47.072;15.132;2023-07-30T22:16:11;96690.00;;;17.99;83.10
20930;BME280;21895;47.072;15.132;2023-07-30T22:18:37;96684.00;;;17.95;83.70
20930;BME280;21895;47.072;15.132;2023-07-30T22:21:07;96675.00;;;18.04;83.22
20930;BME280;21895;47.072;15.132;2023-07-30T22:23:34;96671.00;;;17.84;83.58
20930;BME280;21895;47.072;15.132;2023-07-30T22:26:01;96677.00;;;17.89;82.62
20930;BME280;21895;47.072;15.132;2023-07-30T22:28:27;96671.00;;;17.87;82.59
20930;BME280;21895;47.072;15.132;2023-07-30T22:30:54;96680.00;;;17.91;82.37
20930;BME280;21895;47.072;15.132;2023-07-30T22:33:21;96670.00;;;17.81;81.79
20930;BME280;21895;47.072;15.132;2023-07-30T22:35:55;96667.00;;;17.56;82.52
20930;BME280;21895;47.072;15.132;2023-07-30T22:38:22;96667.00;;;17.34;83.64
20930;BME280;21895;47.072;15.132;2023-07-30T22:40:49;96659.00;;;17.24;84.52
20930;BME280;21895;47.072;15.132;2023-07-30T22:43:15;96667.00;;;17.27;84.05
20930;BME280;21895;47.072;15.132;2023-07-30T22:45:42;96662.00;;;17.36;83.54
20930;BME280;21895;47.072;15.132;2023-07-30T22:48:10;96664.00;;;17.42;82.83
20930;BME280;21895;47.072;15.132;2023-07-30T22:50:37;96666.00;;;17.40;83.13
20930;BME280;21895;47.072;15.132;2023-07-30T22:53:04;96665.00;;;17.49;81.87
20930;BME280;21895;47.072;15.132;2023-07-30T22:55:30;96660.00;;;17.51;81.19
20930;BME280;21895;47.072;15.132;2023-07-30T22:57:57;96668.00;;;17.29;81.31
20930;BME280;21895;47.072;15.132;2023-07-30T23:00:24;96661.00;;;17.20;82.42
20930;BME280;21895;47.072;15.132;2023-07-30T23:02:50;96657.00;;;17.00;82.80
20930;BME280;21895;47.072;15.132;2023-07-30T23:05:17;96661.00;;;17.03;83.04
20930;BME280;21895;47.072;15.132;2023-07-30T23:07:44;96657.00;;;17.19;81.32
20930;BME280;21895;47.072;15.132;2023-07-30T23:10:10;96656.00;;;17.28;80.81
20930;BME280;21895;47.072;15.132;2023-07-30T23:12:37;96653.00;;;17.11;82.01
20930;BME280;21895;47.072;15.132;2023-07-30T23:15:04;96643.00;;;17.10;81.83
20930;BME280;21895;47.072;15.132;2023-07-30T23:17:31;96644.00;;;17.12;81.40
20930;BME280;21895;47.072;15.132;2023-07-30T23:19:57;96648.00;;;17.16;81.08
20930;BME280;21895;47.072;15.132;2023-07-30T23:22:24;96654.00;;;17.09;81.41
20930;BME280;21895;47.072;15.132;2023-07-30T23:24:51;96662.00;;;17.15;81.42
20930;BME280;21895;47.072;15.132;2023-07-30T23:27:17;96664.00;;;17.20;80.68
20930;BME280;21895;47.072;15.132;2023-07-30T23:29:45;96674.00;;;17.05;80.85
20930;BME280;21895;47.072;15.132;2023-07-30T23:32:12;96678.00;;;17.16;79.67
20930;BME280;21895;47.072;15.132;2023-07-30T23:34:38;96676.00;;;17.17;79.79
20930;BME280;21895;47.072;15.132;2023-07-30T23:37:05;96672.00;;;17.47;77.58
20930;BME280;21895;47.072;15.132;2023-07-30T23:39:32;96664.00;;;17.49;77.37
20930;BME280;21895;47.072;15.132;2023-07-30T23:41:58;96659.00;;;17.28;79.71
20930;BME280;21895;47.072;15.132;2023-07-30T23:44:25;96656.00;;;17.32;80.67
20930;BME280;21895;47.072;15.132;2023-07-30T23:46:51;96663.00;;;17.33;80.96
20930;BME280;21895;47.072;15.132;2023-07-30T23:49:18;96655.00;;;17.47;78.44
20930;BME280;21895;47.072;15.132;2023-07-30T23:51:45;96649.00;;;17.48;77.09
20930;BME280;21895;47.072;15.132;2023-07-30T23:54:11;96643.00;;;17.22;77.75
20930;BME280;21895;47.072;15.132;2023-07-30T23:56:38;96641.00;;;17.19;77.80
20930;BME280;21895;47.072;15.132;2023-07-30T23:59:04;96639.00;;;16.94;79.31
